Time;durP1;ratioP1;P1;durP2;ratioP2;P2;SDS_P1;SDS_P2;PMS_P1;PMS_P2;Temp;Humidity;BMP_temperature;BMP_pressure;BME280_temperature;BME280_humidity;BME280_pressure;Samples;Min_cycle;Max_cycle;Signal;HPM_P1;HPM_P2
2021/03/21 00:00:04;;;;;;;8.60;4.40;;;;;;;0.78;69.27;96907.00;5036842;28;20219;-73
2021/03/21 00:02:30;;;;;;;8.80;4.20;;;;;;;0.73;69.93;96908.25;5037054;28;20691;-74
2021/03/21 00:04:56;;;;;;;11.20;4.53;;;;;;;0.77;70.26;96912.28;5036106;28;20266;-72
2021/03/21 00:07:22;;;;;;;10.03;5.03;;;;;;;0.78;70.70;96917.38;5036233;28;20611;-73
2021/03/21 00:09:48;;;;;;;24.40;7.83;;;;;;;0.79;70.82;96907.81;5036633;28;20237;-72
2021/03/21 00:12:15;;;;;;;12.53;5.30;;;;;;;0.68;70.69;96915.50;5037849;28;20233;-75
2021/03/21 00:14:41;;;;;;;11.10;5.00;;;;;;;0.69;70.70;96905.00;5036586;28;20280;-74
2021/03/21 00:17:07;;;;;;;8.30;4.70;;;;;;;0.66;70.78;96901.78;5035433;28;20284;-73
2021/03/21 00:19:33;;;;;;;8.60;4.37;;;;;;;0.68;70.78;96902.53;5037043;28;20744;-74
2021/03/21 00:21:59;;;;;;;13.33;5.10;;;;;;;0.70;70.52;96900.66;5036208;28;20232;-74
2021/03/21 00:24:25;;;;;;;9.90;4.87;;;;;;;0.64;71.14;96901.06;5036314;28;20575;-73
2021/03/21 00:26:51;;;;;;;7.97;4.20;;;;;;;0.60;70.47;96899.63;5035745;28;20266;-74
2021/03/21 00:29:18;;;;;;;7.17;4.00;;;;;;;0.61;70.57;96898.66;5036565;28;20247;-74
2021/03/21 00:31:44;;;;;;;10.57;4.50;;;;;;;0.65;70.64;96887.19;5036322;28;20215;-73
2021/03/21 00:34:10;;;;;;;7.90;4.10;;;;;;;0.60;71.19;96891.84;5036554;28;20645;-72
2021/03/21 00:36:36;;;;;;;6.87;4.13;;;;;;;0.64;71.10;96888.09;5035953;28;20225;-74
2021/03/21 00:39:04;;;;;;;10.63;4.23;;;;;;;0.68;71.37;96889.56;5036518;28;20215;-74
2021/03/21 00:41:30;;;;;;;10.90;4.43;;;;;;;0.61;73.29;96881.38;5036791;28;20204;-74
2021/03/21 00:43:57;;;;;;;8.03;4.10;;;;;;;0.65;72.91;96892.38;5036549;28;20267;-74
2021/03/21 00:46:25;;;;;;;11.30;4.53;;;;;;;0.69;73.00;96881.66;5035392;28;20259;-72
2021/03/21 00:48:52;;;;;;;8.53;4.50;;;;;;;0.64;73.80;96881.16;5035898;28;20204;-74
2021/03/21 00:51:18;;;;;;;11.20;4.97;;;;;;;0.63;73.84;96886.44;5036657;28;20200;-72
2021/03/21 00:53:44;;;;;;;9.47;4.47;;;;;;;0.64;74.12;96877.72;5036333;28;20201;-74
2021/03/21 00:56:21;;;;;;;9.00;3.30;;;;;;;0.59;74.11;96874.63;5035395;28;20259;-73
2021/03/21 00:58:47;;;;;;;8.50;4.70;;;;;;;0.58;75.73;96867.75;5036132;28;20205;-72
2021/03/21 01:01:13;;;;;;;9.70;3.87;;;;;;;0.50;75.36;96871.78;5036014;28;20359;-74
2021/03/21 01:03:40;;;;;;;9.47;4.87;;;;;;;0.59;75.60;96870.25;5035948;28;20231;-72
2021/03/21 01:06:07;;;;;;;13.30;6.03;;;;;;;0.65;76.40;96862.06;5035739;28;20221;-73
2021/03/21 01:08:35;;;;;;;8.03;4.50;;;;;;;0.55;76.38;96859.34;5039282;28;20201;-74
2021/03/21 01:11:03;;;;;;;8.67;4.67;;;;;;;0.66;77.11;96849.91;5039762;28;20210;-72
2021/03/21 01:13:30;;;;;;;8.93;4.73;;;;;;;0.70;76.24;96838.41;5040156;28;21087;-72
2021/03/21 01:15:56;;;;;;;10.43;4.90;;;;;;;0.77;77.40;96839.66;5039199;28;20231;-73
2021/03/21 01:18:26;;;;;;;13.47;5.07;;;;;;;0.75;74.24;96838.94;5039601;28;20210;-72
2021/03/21 01:20:53;;;;;;;9.93;5.13;;;;;;;0.72;74.71;96839.16;5039652;28;20201;-73
2021/03/21 01:23:20;;;;;;;10.67;5.07;;;;;;;0.74;73.26;96830.34;5040592;28;20229;-74
2021/03/21 01:25:46;;;;;;;12.07;4.83;;;;;;;0.77;75.35;96837.91;5038964;28;20236;-74
2021/03/21 01:28:20;;;;;;;10.00;4.10;;;;;;;0.61;73.36;96849.41;5038772;28;20224;-74
2021/03/21 01:30:46;;;;;;;12.07;5.50;;;;;;;0.68;74.53;96835.09;5040057;28;20207;-73
2021/03/21 01:33:12;;;;;;;12.37;6.40;;;;;;;0.72;75.85;96836.56;5039631;28;20193;-73
2021/03/21 01:35:38;;;;;;;14.47;5.37;;;;;;;0.57;76.25;96829.78;5038762;28;20777;-72
2021/03/21 01:38:05;;;;;;;9.03;5.10;;;;;;;0.66;76.58;96824.00;5039822;28;20290;-74
2021/03/21 01:40:34;;;;;;;10.73;4.87;;;;;;;0.71;77.70;96825.34;5039411;28;20201;-74
2021/03/21 01:43:00;;;;;;;10.07;4.60;;;;;;;0.60;76.66;96827.00;5038937;28;20236;-72
2021/03/21 01:45:35;;;;;;;11.90;5.53;;;;;;;0.51;76.70;96826.78;5039174;28;20316;-74
2021/03/21 01:48:04;;;;;;;9.80;5.13;;;;;;;0.47;77.75;96815.81;5038947;28;21027;-74
2021/03/21 01:50:36;;;;;;;10.53;5.00;;;;;;;0.56;78.14;96822.97;5039031;28;20212;-73
2021/03/21 01:53:03;;;;;;;10.73;4.77;;;;;;;0.68;76.26;96815.16;5039613;28;20201;-73
2021/03/21 01:55:30;;;;;;;8.60;4.83;;;;;;;0.67;76.06;96813.50;5038458;28;20229;-72
2021/03/21 01:57:56;;;;;;;8.27;4.63;;;;;;;0.69;76.40;96811.66;5038936;28;20205;-73
2021/03/21 02:00:23;;;;;;;9.17;4.50;;;;;;;0.66;76.11;96806.69;5037417;28;20213;-72
2021/03/21 02:02:49;;;;;;;10.90;5.37;;;;;;;0.61;74.48;96807.91;5039012;28;20232;-72
2021/03/21 02:05:16;;;;;;;8.20;4.40;;;;;;;0.60;74.07;96812.28;5037967;28;20225;-74
2021/03/21 02:08:03;;;;;;;9.67;4.90;;;;;;;0.61;74.90;96807.91;5038705;28;20205;-73
2021/03/21 02:10:40;;;;;;;9.30;4.67;;;;;;;0.61;75.16;96803.56;5039025;28;20220;-73
2021/03/21 02:13:12;;;;;;;8.73;4.40;;;;;;;0.67;73.84;96789.34;5038616;28;20201;-72
2021/03/21 02:15:45;;;;;;;9.87;4.30;;;;;;;0.62;75.49;96799.19;5038256;28;20233;-72
2021/03/21 02:18:21;;;;;;;9.23;4.57;;;;;;;0.71;74.44;96788.19;5038023;28;20202;-74
2021/03/21 02:21:12;;;;;;;9.43;4.20;;;;;;;0.74;74.59;96777.63;5038536;28;20219;-72
2021/03/21 02:23:52;;;;;;;8.27;4.10;;;;;;;0.72;73.74;96774.31;5014414;28;20343;-73
2021/03/21 02:26:43;;;;;;;7.83;3.90;;;;;;;0.75;73.74;96779.28;5037974;28;20221;-73
2021/03/21 02:29:23;;;;;;;7.10;4.10;;;;;;;0.78;73.23;96779.09;5038293;28;20208;-74
2021/03/21 02:31:55;;;;;;;8.97;4.50;;;;;;;0.72;73.20;96779.50;5038832;28;20263;-73
2021/03/21 02:34:30;;;;;;;9.60;4.50;;;;;;;0.73;74.80;96773.38;5038986;28;20232;-72
2021/03/21 02:37:06;;;;;;;9.43;4.40;;;;;;;0.70;73.88;96776.16;5037463;28;20228;-74
2021/03/21 02:39:38;;;;;;;9.23;4.17;;;;;;;0.53;74.19;96775.69;5038259;28;20247;-72
2021/03/21 02:42:08;;;;;;;8.97;4.20;;;;;;;0.64;74.82;96769.66;5038543;28;20228;-74
2021/03/21 02:44:40;;;;;;;12.67;4.80;;;;;;;0.68;74.62;96758.13;5038040;28;20217;-73
2021/03/21 02:47:13;;;;;;;9.63;4.03;;;;;;;0.64;73.56;96769.66;5037392;28;20208;-73
2021/03/21 02:49:43;;;;;;;9.40;4.60;;;;;;;0.63;73.89;96761.97;5038388;28;20214;-73
2021/03/21 02:52:13;;;;;;;9.70;4.47;;;;;;;0.60;73.00;96755.22;5038000;28;20215;-73
2021/03/21 02:54:45;;;;;;;9.93;4.60;;;;;;;0.66;73.15;96753.97;5038011;28;20232;-72
2021/03/21 02:57:14;;;;;;;6.73;3.77;;;;;;;0.55;74.17;96742.69;5037094;28;20278;-72
2021/03/21 02:59:47;;;;;;;9.00;4.47;;;;;;;0.57;74.47;96744.22;5037787;28;20213;-72
2021/03/21 03:02:18;;;;;;;7.20;4.17;;;;;;;0.62;74.00;96732.63;5037603;28;20227;-74
2021/03/21 03:04:48;;;;;;;10.20;4.47;;;;;;;0.62;73.59;96731.78;5037975;28;20224;-73
2021/03/21 03:07:19;;;;;;;9.30;5.00;;;;;;;0.72;74.52;96725.03;5037044;28;20727;-71
2021/03/21 03:09:49;;;;;;;7.07;4.17;;;;;;;0.70;75.59;96719.13;5037983;28;20261;-73
2021/03/21 03:12:19;;;;;;;9.70;4.83;;;;;;;0.72;74.80;96717.25;5037535;28;20194;-73
2021/03/21 03:14:47;;;;;;;6.43;3.50;;;;;;;0.69;73.04;96717.47;5037183;28;20233;-72
2021/03/21 03:17:27;;;;;;;11.20;4.93;;;;;;;0.67;75.66;96714.97;5036737;28;20648;-72
2021/03/21 03:19:58;;;;;;;11.23;5.40;;;;;;;0.66;74.23;96713.34;5037839;28;20247;-74
2021/03/21 03:22:32;;;;;;;10.97;4.53;;;;;;;0.65;74.93;96716.03;5037415;28;20220;-72
2021/03/21 03:25:08;;;;;;;9.07;4.43;;;;;;;0.65;74.40;96710.84;5037281;28;20635;-73
2021/03/21 03:27:40;;;;;;;13.67;4.87;;;;;;;0.69;74.00;96709.69;5037428;28;20222;-74
2021/03/21 03:30:12;;;;;;;8.23;4.70;;;;;;;0.70;75.44;96707.00;5036764;28;20335;-74
2021/03/21 03:32:38;;;;;;;10.53;4.60;;;;;;;0.77;73.97;96707.41;5037397;28;20561;-73
2021/03/21 03:35:09;;;;;;;9.43;4.53;;;;;;;0.82;73.76;96697.53;5034703;28;20254;-73
2021/03/21 03:37:35;;;;;;;9.07;4.97;;;;;;;0.78;73.72;96703.88;5037520;28;20199;-74
2021/03/21 03:40:02;;;;;;;8.10;4.60;;;;;;;0.78;74.94;96704.69;5036983;28;20197;-73
2021/03/21 03:42:38;;;;;;;12.20;4.43;;;;;;;0.80;74.38;96701.97;5037730;28;20228;-74
2021/03/21 03:45:13;;;;;;;8.37;4.77;;;;;;;0.74;73.96;96697.25;5036181;28;20228;-74
2021/03/21 03:47:50;;;;;;;11.27;4.90;;;;;;;0.74;73.98;96697.25;5036943;28;20212;-72
2021/03/21 03:50:24;;;;;;;10.80;4.93;;;;;;;0.74;72.94;96684.28;5037683;28;20205;-74
2021/03/21 03:53:06;;;;;;;8.97;4.60;;;;;;;0.79;75.53;96685.59;5037188;28;20204;-73
2021/03/21 03:55:37;;;;;;;9.27;4.97;;;;;;;0.76;74.86;96682.38;5036072;28;20251;-73
2021/03/21 03:58:08;;;;;;;9.10;4.17;;;;;;;0.84;73.75;96690.47;5036862;28;20695;-74
2021/03/21 04:00:39;;;;;;;10.43;5.00;;;;;;;0.77;74.09;96686.66;5037415;28;20233;-72
2021/03/21 04:03:15;;;;;;;11.17;5.07;;;;;;;0.77;73.93;96676.28;5036508;28;20217;-74
2021/03/21 04:05:47;;;;;;;9.07;5.17;;;;;;;0.76;74.56;96680.66;5036353;28;20232;-74
2021/03/21 04:08:20;;;;;;;8.47;4.30;;;;;;;0.69;74.45;96687.19;5036661;28;20295;-72
2021/03/21 04:10:50;;;;;;;19.80;7.80;;;;;;;0.69;74.97;96681.19;5036644;28;20214;-73
2021/03/21 04:13:21;;;;;;;10.67;5.13;;;;;;;0.73;74.28;96680.84;5036580;28;20290;-74
2021/03/21 04:15:51;;;;;;;8.57;4.67;;;;;;;0.74;74.38;96679.09;5035505;28;20781;-74
2021/03/21 04:18:22;;;;;;;8.93;4.83;;;;;;;0.76;74.27;96672.00;5036521;28;20204;-74
2021/03/21 04:20:56;;;;;;;12.13;5.20;;;;;;;0.69;74.24;96660.44;5036938;28;20675;-74
2021/03/21 04:23:30;;;;;;;9.73;4.67;;;;;;;0.68;75.71;96654.41;5036844;28;20319;-72
2021/03/21 04:26:01;;;;;;;9.07;4.63;;;;;;;0.75;74.96;96645.25;5035556;28;20224;-74
2021/03/21 04:28:34;;;;;;;8.20;4.40;;;;;;;0.73;74.47;96656.69;5036483;28;20219;-71
2021/03/21 04:31:04;;;;;;;11.00;5.20;;;;;;;0.79;74.53;96661.41;5036566;28;20212;-73
2021/03/21 04:33:34;;;;;;;8.87;4.50;;;;;;;0.73;75.58;96667.88;5036432;28;20205;-72
2021/03/21 04:36:02;;;;;;;7.90;4.27;;;;;;;0.72;76.68;96662.78;5035409;28;20231;-72
2021/03/21 04:38:34;;;;;;;11.13;4.47;;;;;;;0.72;75.26;96660.22;5036401;28;20794;-74
2021/03/21 04:41:03;;;;;;;9.53;4.87;;;;;;;0.73;76.16;96656.69;5036585;28;20203;-73
2021/03/21 04:43:37;;;;;;;11.60;4.67;;;;;;;0.76;76.20;96656.47;5039911;28;21043;-74
2021/03/21 04:46:08;;;;;;;11.03;4.27;;;;;;;0.74;74.94;96666.13;5039981;28;20232;-74
2021/03/21 04:48:35;;;;;;;9.63;4.60;;;;;;;0.72;75.84;96661.03;5040189;28;20777;-74
2021/03/21 04:51:04;;;;;;;8.00;4.57;;;;;;;0.70;75.59;96669.84;5040575;28;20227;-72
2021/03/21 04:53:39;;;;;;;10.00;5.27;;;;;;;0.70;75.69;96668.09;5041077;28;20211;-74
2021/03/21 04:56:14;;;;;;;8.83;4.47;;;;;;;0.73;74.79;96669.66;5038909;28;20226;-74
2021/03/21 04:58:43;;;;;;;9.30;4.97;;;;;;;0.73;75.03;96669.66;5040449;28;20216;-73
2021/03/21 05:01:14;;;;;;;8.90;3.50;;;;;;;0.76;74.56;96678.06;5040554;28;20676;-72
2021/03/21 05:03:45;;;;;;;7.60;4.47;;;;;;;0.78;74.98;96668.38;5040922;28;20664;-72
2021/03/21 05:06:16;;;;;;;8.83;4.33;;;;;;;0.86;77.03;96673.84;5038837;28;20277;-72
2021/03/21 05:08:50;;;;;;;9.63;4.90;;;;;;;0.89;75.73;96672.81;5039924;28;20987;-74
2021/03/21 05:11:18;;;;;;;10.87;4.60;;;;;;;0.86;75.54;96684.22;5040517;28;20201;-74
2021/03/21 05:13:51;;;;;;;8.93;4.70;;;;;;;0.82;75.62;96684.56;5039629;28;20211;-72
2021/03/21 05:16:26;;;;;;;9.33;4.93;;;;;;;0.81;74.90;96678.53;5039477;28;20225;-73
2021/03/21 05:18:57;;;;;;;8.73;4.33;;;;;;;0.65;76.36;96679.72;5039516;28;20252;-73
2021/03/21 05:21:28;;;;;;;8.73;4.63;;;;;;;0.72;76.39;96675.75;5039824;28;20204;-74
2021/03/21 05:24:01;;;;;;;12.13;4.97;;;;;;;0.71;76.58;96668.91;5039921;28;20238;-74
2021/03/21 05:26:33;;;;;;;9.57;4.80;;;;;;;0.77;76.93;96658.13;5038719;28;20221;-74
2021/03/21 05:29:28;;;;;;;10.00;5.33;;;;;;;0.74;76.93;96653.16;5039477;28;20203;-72
2021/03/21 05:31:56;;;;;;;10.07;4.60;;;;;;;0.73;76.75;96646.31;5039724;28;20214;-72
2021/03/21 05:34:22;;;;;;;10.60;5.17;;;;;;;0.80;77.93;96657.88;5039702;28;20208;-74
2021/03/21 05:37:00;;;;;;;9.40;4.60;;;;;;;0.77;76.85;96652.94;5038837;28;20223;-72
2021/03/21 05:39:41;;;;;;;9.57;5.20;;;;;;;0.76;77.37;96648.69;5039411;28;20208;-72
2021/03/21 05:42:46;;;;;;;8.10;4.83;;;;;;;0.74;77.15;96640.19;5039674;28;20208;-75
2021/03/21 05:45:35;;;;;;;9.77;4.70;;;;;;;0.81;78.33;96644.00;5038588;28;20225;-73
2021/03/21 05:48:30;;;;;;;9.60;5.30;;;;;;;0.93;78.33;96643.97;5039436;28;20201;-73
2021/03/21 05:51:16;;;;;;;9.90;5.20;;;;;;;0.82;77.28;96638.69;5039036;28;21156;-72
2021/03/21 05:54:30;;;;;;;8.43;4.57;;;;;;;0.78;77.06;96645.03;5037992;28;20207;-72
2021/03/21 05:57:19;;;;;;;14.97;6.33;;;;;;;0.86;77.35;96639.31;5038849;28;20209;-72
2021/03/21 06:00:08;;;;;;;8.37;4.40;;;;;;;0.90;77.29;96645.94;5039361;28;20205;-72
2021/03/21 06:03:02;;;;;;;12.73;4.80;;;;;;;0.99;77.59;96643.50;5038787;28;20597;-72
2021/03/21 06:06:07;;;;;;;11.23;4.70;;;;;;;1.00;76.34;96644.34;5038241;28;20282;-72
2021/03/21 06:08:41;;;;;;;7.80;4.07;;;;;;;0.96;76.13;96648.09;5038447;28;20202;-72
2021/03/21 06:11:35;;;;;;;8.67;4.83;;;;;;;1.01;77.09;96640.81;5038883;28;20205;-72
2021/03/21 06:14:43;;;;;;;7.87;4.10;;;;;;;0.99;77.20;96650.47;5036952;28;20277;-72
2021/03/21 06:17:33;;;;;;;7.40;4.17;;;;;;;0.97;77.75;96636.75;5037464;28;20209;-72
2021/03/21 06:20:16;;;;;;;10.13;5.30;;;;;;;1.04;78.02;96645.78;5038591;28;20445;-72
2021/03/21 06:23:19;;;;;;;10.43;5.07;;;;;;;1.04;77.53;96644.00;5039311;28;20229;-72
2021/03/21 06:25:58;;;;;;;13.30;5.77;;;;;;;1.08;77.58;96631.66;5037403;28;20727;-72
2021/03/21 06:29:01;;;;;;;7.77;4.50;;;;;;;1.07;76.33;96632.56;5038841;28;20273;-71
2021/03/21 06:32:00;;;;;;;9.10;4.90;;;;;;;1.10;76.47;96628.00;5038265;28;21266;-72
2021/03/21 06:34:32;;;;;;;10.13;5.23;;;;;;;1.03;76.08;96626.81;5004675;28;20266;-72
2021/03/21 06:37:01;;;;;;;10.90;4.80;;;;;;;1.06;75.33;96629.16;5037503;28;20210;-72
2021/03/21 06:39:53;;;;;;;7.37;4.37;;;;;;;1.06;75.24;96623.13;5038292;28;20208;-71
2021/03/21 06:42:49;;;;;;;10.97;4.10;;;;;;;1.09;76.66;96618.56;5038048;28;20223;-72
2021/03/21 06:45:47;;;;;;;9.13;4.70;;;;;;;1.08;76.04;96610.88;5037980;28;20223;-71
2021/03/21 06:48:36;;;;;;;11.13;5.30;;;;;;;1.10;75.86;96599.47;5038074;28;20319;-72
2021/03/21 06:51:28;;;;;;;13.83;5.03;;;;;;;1.19;77.01;96603.97;5037975;28;20212;-72
2021/03/21 06:54:00;;;;;;;9.03;5.00;;;;;;;1.18;75.46;96594.53;5030178;28;20970;-72
2021/03/21 06:56:58;;;;;;;9.37;4.90;;;;;;;1.25;77.41;96586.19;5037117;28;20228;-72
2021/03/21 06:59:54;;;;;;;10.30;5.33;;;;;;;1.35;76.79;96573.34;5038300;28;20211;-72
2021/03/21 07:03:00;;;;;;;9.87;4.87;;;;;;;1.45;75.14;96574.31;5038078;28;20204;-72
2021/03/21 07:06:03;;;;;;;10.53;4.63;;;;;;;1.37;74.94;96587.88;5036445;28;20224;-72
2021/03/21 07:09:05;;;;;;;8.20;4.60;;;;;;;1.37;74.93;96582.69;5037933;28;20666;-72
2021/03/21 07:12:08;;;;;;;9.93;4.90;;;;;;;1.43;75.73;96584.81;5037167;28;20758;-72
2021/03/21 07:15:15;;;;;;;10.70;5.23;;;;;;;1.39;75.10;96575.63;5037578;28;20231;-71
2021/03/21 07:18:20;;;;;;;9.73;4.90;;;;;;;1.39;74.96;96587.78;5037714;28;20208;-72
2021/03/21 07:21:05;;;;;;;9.13;4.80;;;;;;;1.40;75.15;96587.66;4987235;28;20213;-72
2021/03/21 07:24:01;;;;;;;12.83;5.03;;;;;;;1.40;75.65;96587.66;5037344;28;20235;-71
2021/03/21 07:27:06;;;;;;;10.00;3.33;;;;;;;1.46;75.56;96587.19;5036965;28;20230;-71
2021/03/21 07:29:42;;;;;;;10.93;5.37;;;;;;;1.40;75.80;96592.84;5037310;28;20280;-72
2021/03/21 07:32:29;;;;;;;14.27;5.50;;;;;;;1.36;76.03;96586.25;5037142;28;20196;-72
2021/03/21 07:35:12;;;;;;;9.33;4.60;;;;;;;1.35;75.75;96589.78;5037043;28;20231;-71
2021/03/21 07:37:50;;;;;;;10.83;5.07;;;;;;;1.32;75.33;96586.56;5037648;28;20209;-72
2021/03/21 07:40:29;;;;;;;12.83;5.57;;;;;;;1.27;75.71;96599.91;5036146;28;20210;-72
2021/03/21 07:43:39;;;;;;;9.50;4.77;;;;;;;1.34;75.14;96601.09;5036494;28;20232;-72
2021/03/21 07:46:39;;;;;;;10.07;5.03;;;;;;;1.31;74.94;96593.53;5036446;28;20228;-72
2021/03/21 07:49:20;;;;;;;8.37;4.40;;;;;;;1.28;74.92;96592.91;5038358;28;20562;-71
2021/03/21 07:52:01;;;;;;;7.10;3.67;;;;;;;1.38;75.39;96588.72;5037233;28;20209;-72
2021/03/21 07:54:34;;;;;;;10.63;5.00;;;;;;;1.38;75.11;96588.72;5036612;28;20277;-71
2021/03/21 07:57:07;;;;;;;10.43;5.07;;;;;;;1.38;75.15;96589.53;5036624;28;20219;-72
2021/03/21 07:59:35;;;;;;;11.10;4.83;;;;;;;1.40;74.49;96598.03;5037274;28;20247;-72
2021/03/21 08:02:01;;;;;;;11.77;4.97;;;;;;;1.41;74.62;96597.13;5037064;28;20215;-72
2021/03/21 08:04:32;;;;;;;15.50;6.77;;;;;;;1.47;75.55;96599.25;5036730;28;20238;-72
2021/03/21 08:07:02;;;;;;;10.30;5.47;;;;;;;1.51;74.18;96599.84;5035974;28;20224;-73
2021/03/21 08:09:33;;;;;;;14.43;6.10;;;;;;;1.55;74.66;96601.28;5036314;28;20705;-72
2021/03/21 08:12:27;;;;;;;14.03;6.20;;;;;;;1.65;74.64;96590.06;5036751;28;20675;-72
2021/03/21 08:14:57;;;;;;;13.77;6.57;;;;;;;1.69;74.58;96583.69;5036541;28;20225;-72
2021/03/21 08:17:28;;;;;;;11.67;4.93;;;;;;;1.70;74.36;96587.97;5034937;28;21217;-72
2021/03/21 08:19:58;;;;;;;12.37;5.43;;;;;;;1.61;73.82;96585.25;5036343;28;20215;-72
2021/03/21 08:22:28;;;;;;;11.00;5.40;;;;;;;1.70;75.02;96585.38;5036261;28;20794;-72
2021/03/21 08:24:58;;;;;;;10.93;4.50;;;;;;;1.69;75.03;96568.13;5036373;28;20232;-72
2021/03/21 08:27:29;;;;;;;9.37;5.13;;;;;;;1.62;74.77;96579.94;5035799;28;20273;-72
2021/03/21 08:29:58;;;;;;;10.57;5.17;;;;;;;1.66;74.74;96578.75;5036662;28;20208;-72
2021/03/21 08:32:26;;;;;;;15.30;6.23;;;;;;;1.60;75.42;96571.41;5036664;28;20204;-72
2021/03/21 08:34:52;;;;;;;13.47;6.10;;;;;;;1.66;75.52;96559.75;5035947;28;20243;-72
2021/03/21 08:37:25;;;;;;;12.10;5.80;;;;;;;1.59;75.56;96567.19;5035471;28;20203;-72
2021/03/21 08:39:54;;;;;;;9.77;4.93;;;;;;;1.59;75.28;96567.19;5036709;28;20210;-72
2021/03/21 08:42:37;;;;;;;9.07;4.97;;;;;;;1.76;75.98;96564.13;5036189;28;20209;-73
2021/03/21 08:45:24;;;;;;;11.70;5.63;;;;;;;1.86;75.89;96558.13;5035529;28;20238;-72
2021/03/21 08:48:02;;;;;;;9.50;5.20;;;;;;;1.86;74.26;96565.09;5036928;28;20617;-73
2021/03/21 08:50:35;;;;;;;12.73;5.43;;;;;;;1.94;74.77;96575.72;5036018;28;20208;-72
2021/03/21 08:53:02;;;;;;;20.93;11.47;;;;;;;1.95;75.33;96570.41;5036295;28;20224;-72
2021/03/21 08:55:31;;;;;;;10.93;6.23;;;;;;;1.94;75.31;96562.72;5035595;28;20225;-72
2021/03/21 08:57:59;;;;;;;6.13;2.63;;;;;;;1.97;74.36;96568.53;5036300;28;20208;-72
2021/03/21 09:00:34;;;;;;;13.00;5.60;;;;;;;1.89;74.58;96560.47;5036118;28;20204;-71
2021/03/21 09:03:00;;;;;;;10.23;5.57;;;;;;;1.90;74.83;96556.13;5036406;28;20234;-71
2021/03/21 09:05:27;;;;;;;19.20;6.70;;;;;;;1.90;74.70;96540.53;5035114;28;20230;-72
2021/03/21 09:08:15;;;;;;;16.37;6.23;;;;;;;2.04;73.64;96537.69;5035747;28;20208;-72
2021/03/21 09:10:51;;;;;;;15.10;7.53;;;;;;;2.13;73.63;96539.59;5036693;28;20265;-72
2021/03/21 09:13:20;;;;;;;8.63;4.63;;;;;;;2.07;72.79;96537.44;5036408;28;20231;-72
2021/03/21 09:15:59;;;;;;;12.13;5.87;;;;;;;2.22;71.91;96542.28;5035190;28;20778;-72
2021/03/21 09:18:27;;;;;;;14.40;5.70;;;;;;;2.26;72.23;96542.88;5036286;28;20204;-72
2021/03/21 09:21:15;;;;;;;14.10;6.30;;;;;;;2.38;71.54;96541.91;5035880;28;20729;-72
2021/03/21 09:23:46;;;;;;;12.90;5.37;;;;;;;2.35;72.06;96529.16;5035166;28;20260;-72
2021/03/21 09:26:32;;;;;;;10.70;4.40;;;;;;;2.28;71.28;96534.03;5034779;28;20225;-72
2021/03/21 09:29:03;;;;;;;11.03;5.20;;;;;;;2.29;71.62;96537.44;5038308;28;20208;-72
2021/03/21 09:31:29;;;;;;;9.40;5.27;;;;;;;2.40;71.16;96542.63;5039443;28;20207;-72
2021/03/21 09:34:02;;;;;;;10.47;4.93;;;;;;;2.26;71.45;96543.69;5039813;28;20209;-71
2021/03/21 09:36:34;;;;;;;6.90;3.53;;;;;;;2.16;71.08;96547.13;5039062;28;20225;-72
2021/03/21 09:39:09;;;;;;;13.07;5.07;;;;;;;2.23;71.30;96543.09;5039589;28;20271;-72
2021/03/21 09:41:35;;;;;;;9.37;5.07;;;;;;;2.27;71.04;96545.34;5039723;28;20216;-72
2021/03/21 09:44:03;;;;;;;9.43;4.97;;;;;;;2.26;70.18;96545.47;5039624;28;20228;-72
2021/03/21 09:46:42;;;;;;;9.57;3.77;;;;;;;2.22;68.53;96557.88;5038583;28;20258;-72
2021/03/21 09:49:15;;;;;;;9.87;3.50;;;;;;;2.27;70.53;96545.34;5039280;28;20204;-72
2021/03/21 09:51:50;;;;;;;10.50;5.00;;;;;;;2.35;70.88;96548.16;5039479;28;20209;-72
2021/03/21 09:54:35;;;;;;;11.80;4.80;;;;;;;2.29;70.94;96540.03;5039291;28;20193;-72
2021/03/21 09:57:23;;;;;;;6.80;3.90;;;;;;;2.40;70.80;96533.84;5038655;28;20207;-72
2021/03/21 09:59:56;;;;;;;12.03;6.00;;;;;;;2.51;70.50;96522.63;5039304;28;20209;-72
2021/03/21 10:02:30;;;;;;;11.10;4.80;;;;;;;2.54;70.96;96522.38;5038939;28;20968;-71
2021/03/21 10:04:59;;;;;;;9.03;3.93;;;;;;;2.55;70.59;96530.06;5038991;28;20232;-72
2021/03/21 10:07:34;;;;;;;13.77;6.67;;;;;;;2.56;71.94;96521.31;5038837;28;20201;-72
2021/03/21 10:10:05;;;;;;;11.83;5.23;;;;;;;2.55;71.09;96527.44;5038670;28;20224;-72
2021/03/21 10:12:31;;;;;;;9.30;4.97;;;;;;;2.49;72.27;96529.72;5038954;28;20201;-72
2021/03/21 10:15:08;;;;;;;11.40;5.27;;;;;;;2.56;72.35;96533.50;5038772;28;20225;-72
2021/03/21 10:17:56;;;;;;;9.97;5.57;;;;;;;2.59;72.25;96535.84;5038565;28;20291;-72
2021/03/21 10:21:18;;;;;;;15.07;4.87;;;;;;;2.61;71.52;96533.94;5038574;28;20201;-73
2021/03/21 10:24:31;;;;;;;11.13;6.10;;;;;;;2.60;71.08;96525.31;5039121;28;20593;-72
2021/03/21 10:27:40;;;;;;;14.17;6.67;;;;;;;2.51;71.05;96533.84;5037531;28;20299;-71
2021/03/21 10:30:19;;;;;;;14.13;6.60;;;;;;;2.50;71.87;96520.97;5038346;28;20240;-72
2021/03/21 10:32:49;;;;;;;9.10;4.53;;;;;;;2.52;71.93;96522.50;5039017;28;20212;-72
2021/03/21 10:36:03;;;;;;;10.13;5.30;;;;;;;2.55;72.79;96526.63;5037813;28;20227;-72
2021/03/21 10:38:48;;;;;;;6.47;3.73;;;;;;;2.66;73.66;96527.44;4957139;28;20215;-72
2021/03/21 10:41:56;;;;;;;9.53;5.07;;;;;;;2.69;74.26;96515.97;4956639;28;20214;-71
2021/03/21 10:44:57;;;;;;;11.57;4.20;;;;;;;2.74;71.83;96503.41;5025524;28;20220;-71
2021/03/21 10:47:44;;;;;;;9.20;4.77;;;;;;;2.86;73.60;96503.22;5037753;28;20835;-71
2021/03/21 10:50:30;;;;;;;9.10;4.07;;;;;;;2.96;73.03;96504.13;5038542;28;20204;-72
2021/03/21 10:53:15;;;;;;;9.90;5.43;;;;;;;2.87;71.80;96498.88;5037761;28;21162;-70
2021/03/21 10:55:42;;;;;;;14.77;5.37;;;;;;;2.91;73.21;96506.28;5037890;28;20363;-72
2021/03/21 10:58:29;;;;;;;11.97;4.40;;;;;;;2.88;72.88;96501.34;5037813;28;20232;-72
2021/03/21 11:01:25;;;;;;;17.23;6.20;;;;;;;3.04;74.20;96497.38;5038071;28;20215;-72
2021/03/21 11:04:02;;;;;;;11.83;5.20;;;;;;;3.11;71.82;96495.91;5037474;28;20233;-71
2021/03/21 11:06:30;;;;;;;11.07;4.17;;;;;;;3.16;73.00;96506.78;5037391;28;20239;-71
2021/03/21 11:09:08;;;;;;;17.23;6.37;;;;;;;3.10;73.20;96496.84;5037765;28;20278;-71
2021/03/21 11:11:37;;;;;;;10.33;4.70;;;;;;;3.12;73.14;96499.34;5037908;28;20205;-71
2021/03/21 11:14:13;;;;;;;11.70;5.73;;;;;;;3.17;73.13;96495.41;5038002;28;20265;-71
2021/03/21 11:16:39;;;;;;;12.53;5.63;;;;;;;3.27;72.21;96490.25;5036922;28;20703;-71
2021/03/21 11:19:08;;;;;;;7.53;4.07;;;;;;;3.21;72.45;96493.38;5037891;28;20212;-71
2021/03/21 11:21:37;;;;;;;13.80;6.00;;;;;;;3.30;72.05;96490.84;5037601;28;20270;-71
2021/03/21 11:24:06;;;;;;;10.23;4.90;;;;;;;3.35;70.87;96478.25;5037379;28;20233;-71
2021/03/21 11:26:35;;;;;;;7.83;3.93;;;;;;;3.41;70.62;96479.53;5036789;28;20239;-71
2021/03/21 11:29:11;;;;;;;12.10;5.13;;;;;;;3.44;70.34;96476.69;5036924;28;20679;-71
2021/03/21 11:31:41;;;;;;;9.77;5.80;;;;;;;3.44;70.58;96487.09;5037321;28;20209;-71
2021/03/21 11:34:17;;;;;;;12.17;5.23;;;;;;;3.52;69.91;96475.06;5037809;28;20198;-72
2021/03/21 11:36:44;;;;;;;12.67;5.57;;;;;;;3.55;70.96;96481.78;5036381;28;20217;-71
2021/03/21 11:39:19;;;;;;;14.57;5.97;;;;;;;3.60;71.19;96470.03;5037143;28;20205;-71
2021/03/21 11:41:45;;;;;;;12.70;5.70;;;;;;;3.64;70.91;96467.06;5037304;28;20203;-72
2021/03/21 11:44:18;;;;;;;13.53;6.10;;;;;;;3.68;71.30;96463.22;5036951;28;20229;-71
2021/03/21 11:46:45;;;;;;;10.23;4.63;;;;;;;3.64;73.15;96463.63;5036535;28;20216;-72
2021/03/21 11:49:11;;;;;;;12.10;5.73;;;;;;;3.55;72.36;96464.38;5037063;28;20651;-71
2021/03/21 11:51:39;;;;;;;14.47;6.83;;;;;;;3.55;72.28;96456.56;5036052;28;20247;-71
2021/03/21 11:54:06;;;;;;;15.97;7.70;;;;;;;3.52;74.24;96466.44;5036872;28;20204;-71
2021/03/21 11:56:38;;;;;;;12.83;5.80;;;;;;;3.34;73.96;96457.56;5036211;28;20221;-71
2021/03/21 11:59:12;;;;;;;13.80;5.80;;;;;;;3.31;74.75;96449.97;5037174;28;20227;-72
2021/03/21 12:01:41;;;;;;;13.83;6.23;;;;;;;3.45;75.52;96447.03;5036658;28;20212;-71
2021/03/21 12:04:12;;;;;;;6.67;3.70;;;;;;;3.42;75.69;96450.72;5037187;28;20221;-72
2021/03/21 12:06:41;;;;;;;16.67;6.60;;;;;;;3.58;75.11;96450.25;5036085;28;20229;-71
2021/03/21 12:09:13;;;;;;;13.33;6.13;;;;;;;3.52;76.27;96450.81;5036084;28;20768;-71
2021/03/21 12:11:42;;;;;;;13.30;6.77;;;;;;;3.51;74.83;96433.53;5035824;28;20240;-72
2021/03/21 12:14:37;;;;;;;13.27;6.13;;;;;;;3.69;76.22;96438.81;5036544;28;20193;-72
2021/03/21 12:17:39;;;;;;;7.77;3.57;;;;;;;3.57;75.42;96435.63;5035510;28;20213;-71